createdAt,value
2023-01-23T00:01:43.024Z,7.38
2023-01-23T00:04:13.837Z,5.20
2023-01-23T00:06:41.246Z,4.07
2023-01-23T00:09:12.716Z,2.50
2023-01-23T00:11:40.093Z,5.65
2023-01-23T00:14:07.385Z,4.05
2023-01-23T00:16:34.561Z,3.08
2023-01-23T00:19:02.498Z,5.47
2023-01-23T00:21:31.242Z,5.68
2023-01-23T00:24:01.815Z,3.28
2023-01-23T00:26:30.862Z,2.50
2023-01-23T00:29:00.612Z,9.23
2023-01-23T00:31:34.122Z,6.90
2023-01-23T00:34:07.540Z,3.22
2023-01-23T00:36:38.591Z,4.82
2023-01-23T00:39:08.571Z,4.10
2023-01-23T00:41:35.828Z,3.60
2023-01-23T00:44:03.782Z,3.22
2023-01-23T00:46:31.332Z,4.85
2023-01-23T00:48:58.761Z,5.93
2023-01-23T00:51:26.358Z,3.22
2023-01-23T00:53:53.740Z,5.57
2023-01-23T00:56:23.507Z,4.75
2023-01-23T00:58:50.801Z,3.72
2023-01-23T01:01:18.620Z,4.20
2023-01-23T01:03:46.675Z,6.22
2023-01-23T01:06:15.577Z,3.13
2023-01-23T01:08:46.176Z,5.70
2023-01-23T01:11:13.596Z,4.60
2023-01-23T01:13:41.262Z,5.30
2023-01-23T01:16:08.673Z,4.38
2023-01-23T01:18:35.880Z,8.23
2023-01-23T01:21:10.608Z,4.60
2023-01-23T01:23:38.879Z,6.70
2023-01-23T01:26:07.260Z,9.73
2023-01-23T01:28:36.407Z,5.00
2023-01-23T01:31:06.949Z,6.00
2023-01-23T01:33:35.055Z,6.22
2023-01-23T01:36:02.984Z,4.38
2023-01-23T01:38:31.299Z,6.00
2023-01-23T01:40:58.535Z,3.47
2023-01-23T01:43:27.556Z,6.13
2023-01-23T01:46:09.273Z,5.63
2023-01-23T01:49:11.385Z,3.55
2023-01-23T01:52:01.361Z,5.68
2023-01-23T01:54:47.712Z,3.53
2023-01-23T01:57:25.879Z,2.50
2023-01-23T02:00:01.963Z,6.95
2023-01-23T02:02:41.101Z,5.25
2023-01-23T02:05:12.916Z,3.85
2023-01-23T02:08:07.720Z,3.85
2023-01-23T02:10:36.453Z,6.22
2023-01-23T02:13:36.344Z,5.57
2023-01-23T02:16:08.619Z,3.50
2023-01-23T02:18:39.349Z,4.15
2023-01-23T02:21:08.594Z,5.30
2023-01-23T02:23:46.052Z,29.13
2023-01-23T02:26:25.542Z,5.95
2023-01-23T02:28:53.792Z,4.28
2023-01-23T02:31:23.042Z,4.20
2023-01-23T02:33:51.888Z,5.32
2023-01-23T02:36:22.541Z,5.70
2023-01-23T02:39:13.796Z,7.32
2023-01-23T02:41:43.969Z,7.05
2023-01-23T02:44:27.922Z,5.95
2023-01-23T02:47:08.129Z,5.45
2023-01-23T02:49:35.612Z,3.92
2023-01-23T02:52:03.644Z,4.80
2023-01-23T02:54:31.989Z,4.95
2023-01-23T02:56:59.220Z,10.60
2023-01-23T02:59:44.767Z,8.80
2023-01-23T03:04:39.813Z,6.63
2023-01-23T03:07:07.029Z,4.82
2023-01-23T03:09:34.158Z,5.63
2023-01-23T03:12:04.091Z,6.45
2023-01-23T03:14:32.542Z,8.98
2023-01-23T03:16:59.849Z,5.80
2023-01-23T03:19:27.753Z,7.50
2023-01-23T03:21:55.112Z,5.53
2023-01-23T03:24:22.611Z,4.95
2023-01-23T03:26:51.013Z,5.22
2023-01-23T03:29:38.418Z,4.60
2023-01-23T03:32:06.217Z,8.63
2023-01-23T03:34:34.017Z,6.00
2023-01-23T03:37:01.801Z,7.38
2023-01-23T03:39:48.115Z,6.57
2023-01-23T03:42:16.535Z,8.60
2023-01-23T03:44:43.866Z,7.63
2023-01-23T03:47:11.604Z,5.03
2023-01-23T03:49:38.850Z,6.72
2023-01-23T03:52:06.314Z,5.32
2023-01-23T03:54:33.639Z,6.85
2023-01-23T03:57:00.764Z,5.53
2023-01-23T03:59:28.113Z,4.68
2023-01-23T04:01:55.860Z,4.13
2023-01-23T04:04:23.057Z,6.32
2023-01-23T04:06:50.370Z,6.60
2023-01-23T04:09:17.806Z,8.02
2023-01-23T04:11:45.174Z,5.80
2023-01-23T04:14:12.492Z,9.60
2023-01-23T04:16:39.738Z,4.95
2023-01-23T04:19:07.078Z,7.45
2023-01-23T04:21:34.634Z,5.93
2023-01-23T04:24:01.839Z,4.72
2023-01-23T04:26:29.177Z,6.82
2023-01-23T04:28:56.620Z,5.45
2023-01-23T04:31:23.949Z,5.85
2023-01-23T04:33:51.367Z,5.90
2023-01-23T04:36:18.532Z,7.25
2023-01-23T04:38:45.594Z,8.20
2023-01-23T04:41:32.736Z,5.50
2023-01-23T04:44:20.491Z,5.10
2023-01-23T04:46:53.348Z,9.27
2023-01-23T04:49:24.922Z,8.93
2023-01-23T04:51:53.977Z,8.98
2023-01-23T04:54:21.822Z,7.07
2023-01-23T04:56:49.113Z,6.97
2023-01-23T04:59:17.054Z,8.27
2023-01-23T05:01:45.269Z,8.00
2023-01-23T05:04:12.603Z,8.50
2023-01-23T05:06:39.950Z,9.40
2023-01-23T05:09:07.688Z,6.53
2023-01-23T05:11:35.024Z,6.78
2023-01-23T05:14:02.397Z,9.60
2023-01-23T05:16:29.720Z,7.75
2023-01-23T05:18:56.858Z,6.82
2023-01-23T05:21:23.976Z,7.55
2023-01-23T05:23:51.079Z,7.82
2023-01-23T05:26:18.249Z,10.52
2023-01-23T05:28:46.106Z,7.43
2023-01-23T05:31:14.101Z,10.10
2023-01-23T05:33:41.515Z,9.77
2023-01-23T05:36:08.881Z,10.07
2023-01-23T05:38:36.229Z,9.18
2023-01-23T05:41:03.973Z,12.32
2023-01-23T05:43:31.109Z,10.25
2023-01-23T05:46:01.813Z,14.13
2023-01-23T05:48:30.249Z,13.27
2023-01-23T05:50:57.662Z,13.93
2023-01-23T05:53:25.032Z,9.52
2023-01-23T05:55:52.261Z,14.23
2023-01-23T05:58:20.545Z,17.42
2023-01-23T06:00:47.854Z,15.80
2023-01-23T06:03:15.129Z,10.85
2023-01-23T06:05:42.561Z,11.20
2023-01-23T06:08:09.931Z,13.63
2023-01-23T06:10:41.289Z,12.20
2023-01-23T06:13:08.682Z,15.35
2023-01-23T06:15:35.883Z,18.05
2023-01-23T06:18:03.295Z,12.25
2023-01-23T06:20:30.489Z,13.38
2023-01-23T06:22:57.780Z,14.82
2023-01-23T06:25:25.056Z,16.33
2023-01-23T06:27:54.904Z,15.30
2023-01-23T06:30:22.473Z,15.55
2023-01-23T06:32:50.059Z,14.35
2023-01-23T06:35:17.427Z,14.70
2023-01-23T06:37:45.008Z,10.30
2023-01-23T06:40:16.015Z,15.00
2023-01-23T06:42:43.716Z,21.92
2023-01-23T06:45:12.442Z,25.15
2023-01-23T06:47:39.613Z,14.20
2023-01-23T06:50:07.251Z,12.88
2023-01-23T06:52:34.419Z,14.07
2023-01-23T06:55:01.801Z,15.40
2023-01-23T06:57:29.475Z,17.08
2023-01-23T06:59:56.834Z,18.80
2023-01-23T07:02:24.919Z,22.35
2023-01-23T07:04:52.614Z,13.65
2023-01-23T07:07:19.986Z,12.50
2023-01-23T07:09:47.097Z,24.20
2023-01-23T07:12:14.631Z,22.73
2023-01-23T07:14:41.756Z,16.73
2023-01-23T07:17:12.076Z,13.43
2023-01-23T07:19:39.686Z,13.85
2023-01-23T07:22:06.887Z,15.13
2023-01-23T07:24:34.110Z,18.08
2023-01-23T07:27:01.189Z,20.25
2023-01-23T07:29:28.499Z,18.45
2023-01-23T07:31:56.003Z,16.63
2023-01-23T07:34:23.329Z,10.35
2023-01-23T07:36:50.504Z,15.63
2023-01-23T07:39:17.879Z,16.02
2023-01-23T07:41:46.485Z,17.70
2023-01-23T07:44:18.840Z,19.38
2023-01-23T07:46:47.722Z,17.70
2023-01-23T07:49:15.782Z,17.55
2023-01-23T07:51:43.219Z,17.30
2023-01-23T07:54:10.654Z,17.77
2023-01-23T07:56:37.727Z,21.02
2023-01-23T07:59:04.996Z,19.40
2023-01-23T08:01:32.359Z,20.27
2023-01-23T08:03:59.804Z,18.40
2023-01-23T08:06:27.233Z,18.60
2023-01-23T08:08:54.431Z,33.55
2023-01-23T08:11:24.032Z,32.80
2023-01-23T08:13:51.590Z,20.92
2023-01-23T08:16:19.194Z,77.00
2023-01-23T08:18:46.680Z,59.97
2023-01-23T08:21:14.100Z,184.18
2023-01-23T08:23:41.603Z,108.93
2023-01-23T08:26:11.651Z,45.75
2023-01-23T08:28:41.800Z,30.77
2023-01-23T08:31:11.159Z,18.00
2023-01-23T08:33:39.663Z,36.17
2023-01-23T08:36:10.926Z,32.88
2023-01-23T08:38:41.103Z,24.58
2023-01-23T08:41:10.189Z,19.25
2023-01-23T08:43:41.983Z,22.33
2023-01-23T08:46:10.949Z,38.08
2023-01-23T08:48:38.637Z,21.70
2023-01-23T08:51:08.709Z,29.83
2023-01-23T08:53:36.211Z,68.65
2023-01-23T08:56:06.794Z,94.78
2023-01-23T08:58:37.012Z,37.30
2023-01-23T09:01:04.587Z,75.68
2023-01-23T09:03:31.918Z,53.97
2023-01-23T09:06:04.594Z,88.38
2023-01-23T09:08:32.059Z,81.00
2023-01-23T09:11:04.343Z,25.27
2023-01-23T09:13:32.316Z,87.00
2023-01-23T09:16:00.284Z,72.57
2023-01-23T09:18:27.454Z,37.17
2023-01-23T09:20:54.997Z,22.48
2023-01-23T09:23:23.255Z,18.13
2023-01-23T09:25:50.884Z,28.98
2023-01-23T09:28:18.029Z,28.02
2023-01-23T09:30:45.502Z,38.28
2023-01-23T09:33:12.797Z,19.95
2023-01-23T09:35:39.894Z,19.45
2023-01-23T09:38:08.071Z,22.05
2023-01-23T09:40:45.700Z,19.60
2023-01-23T09:43:38.613Z,26.55
2023-01-23T09:46:21.015Z,27.95
2023-01-23T09:48:54.494Z,22.00
2023-01-23T09:51:34.425Z,23.95
2023-01-23T09:54:15.286Z,22.38
2023-01-23T09:56:47.771Z,21.90
2023-01-23T09:59:18.016Z,20.98
2023-01-23T10:01:45.240Z,19.80
2023-01-23T10:04:16.041Z,25.52
2023-01-23T10:07:11.284Z,24.40
2023-01-23T10:09:59.598Z,21.92
2023-01-23T10:12:46.541Z,20.80
2023-01-23T10:15:42.716Z,22.65
2023-01-23T10:18:26.580Z,25.55
2023-01-23T10:20:54.165Z,21.52
2023-01-23T10:23:24.336Z,28.13
2023-01-23T10:25:51.662Z,25.45
2023-01-23T10:28:27.885Z,19.98
2023-01-23T10:31:04.381Z,23.08
2023-01-23T10:33:46.088Z,24.30
2023-01-23T10:36:47.804Z,19.95
2023-01-23T10:39:27.461Z,22.20
2023-01-23T10:42:01.969Z,18.98
2023-01-23T10:44:30.076Z,22.50
2023-01-23T10:47:02.406Z,21.73
2023-01-23T10:49:33.282Z,27.08
2023-01-23T10:52:00.698Z,21.67
2023-01-23T10:54:32.535Z,25.02
2023-01-23T10:57:18.951Z,25.33
2023-01-23T11:00:07.424Z,20.95
2023-01-23T11:02:37.475Z,22.27
2023-01-23T11:05:51.060Z,33.92
2023-01-23T11:08:26.991Z,21.15
2023-01-23T11:13:31.594Z,23.55
2023-01-23T11:16:01.035Z,29.73
2023-01-23T11:18:44.377Z,24.08
2023-01-23T11:21:27.612Z,25.73
2023-01-23T11:24:18.859Z,25.88
2023-01-23T11:26:50.433Z,40.05
2023-01-23T11:29:26.299Z,27.60
2023-01-23T11:31:59.509Z,22.67
2023-01-23T11:34:35.777Z,25.20
2023-01-23T11:37:31.955Z,25.73
2023-01-23T11:40:16.996Z,29.25
2023-01-23T11:42:45.393Z,32.67
2023-01-23T11:45:26.439Z,27.27
2023-01-23T11:48:09.138Z,27.60
2023-01-23T11:50:55.540Z,24.88
2023-01-23T11:53:48.826Z,25.67
2023-01-23T11:56:21.956Z,30.48
2023-01-23T11:59:17.063Z,28.80
2023-01-23T12:02:15.578Z,23.40
2023-01-23T12:05:20.613Z,28.65
2023-01-23T12:07:55.612Z,25.20
2023-01-23T12:10:42.810Z,24.83
2023-01-23T12:13:42.214Z,27.80
2023-01-23T12:16:38.491Z,32.40
2023-01-23T12:19:05.874Z,28.92
2023-01-23T12:21:48.833Z,31.20
2023-01-23T12:24:36.842Z,29.35
2023-01-23T12:27:44.271Z,36.15
2023-01-23T12:30:27.997Z,30.10
2023-01-23T12:33:20.254Z,31.77
2023-01-23T12:36:14.819Z,30.98
2023-01-23T12:39:12.796Z,35.90
2023-01-23T12:41:54.283Z,26.67
2023-01-23T12:44:31.804Z,35.28
2023-01-23T12:47:14.443Z,27.05
2023-01-23T12:50:08.026Z,37.60
2023-01-23T12:52:58.279Z,33.78
2023-01-23T12:55:30.196Z,38.63
2023-01-23T12:58:08.934Z,29.70
2023-01-23T13:00:58.601Z,37.55
2023-01-23T13:04:07.505Z,31.90
2023-01-23T13:07:03.716Z,31.23
2023-01-23T13:09:53.227Z,30.92
2023-01-23T13:12:24.529Z,44.65
2023-01-23T13:15:14.794Z,27.77
2023-01-23T13:18:02.411Z,41.78
2023-01-23T13:20:52.540Z,32.55
2023-01-23T13:23:33.736Z,29.13
2023-01-23T13:26:19.884Z,30.00
2023-01-23T13:28:58.619Z,32.03
2023-01-23T13:31:47.613Z,34.33
2023-01-23T13:34:18.168Z,32.13
2023-01-23T13:36:57.708Z,38.40
2023-01-23T13:39:30.272Z,37.78
2023-01-23T13:42:14.190Z,44.65
2023-01-23T13:45:19.541Z,39.83
2023-01-23T14:22:39.313Z,31.10
2023-01-23T14:25:17.708Z,37.50
2023-01-23T14:27:54.054Z,28.63
2023-01-23T14:30:30.544Z,30.73
2023-01-23T14:32:59.634Z,21.17
2023-01-23T14:35:33.318Z,21.77
2023-01-23T14:38:06.241Z,24.15
2023-01-23T14:40:47.100Z,22.15
2023-01-23T14:43:27.103Z,28.40
2023-01-23T14:46:14.089Z,32.00
2023-01-23T14:48:48.372Z,23.92
2023-01-23T14:51:23.407Z,21.65
2023-01-23T14:53:59.278Z,29.85
2023-01-23T14:56:38.171Z,26.45
2023-01-23T14:59:08.503Z,21.92
2023-01-23T15:01:36.187Z,26.77
2023-01-23T15:04:06.252Z,28.95
2023-01-23T15:06:36.375Z,34.40
2023-01-23T15:09:17.881Z,28.73
2023-01-23T15:11:45.826Z,23.25
2023-01-23T15:14:25.089Z,26.98
2023-01-23T15:17:02.026Z,28.60
2023-01-23T15:19:29.575Z,30.50
2023-01-23T15:22:19.424Z,31.38
2023-01-23T15:24:49.363Z,27.30
2023-01-23T15:27:28.305Z,23.45
2023-01-23T15:30:36.958Z,33.22
2023-01-23T15:33:25.389Z,32.17
2023-01-23T15:35:53.080Z,31.35
2023-01-23T15:38:24.511Z,35.45
2023-01-23T15:40:51.800Z,34.17
2023-01-23T15:43:20.056Z,37.97
2023-01-23T15:45:47.797Z,35.10
2023-01-23T15:48:15.308Z,33.25
2023-01-23T15:50:42.750Z,39.65
2023-01-23T15:53:14.822Z,29.13
2023-01-23T15:55:42.132Z,37.35
2023-01-23T15:58:17.657Z,32.88
2023-01-23T16:00:44.860Z,27.85
2023-01-23T16:03:15.168Z,31.33
2023-01-23T16:05:42.377Z,35.85
2023-01-23T16:08:20.655Z,29.30
2023-01-23T16:10:48.240Z,30.65
2023-01-23T16:13:15.773Z,29.85
2023-01-23T16:15:43.533Z,29.88
2023-01-23T16:18:10.793Z,26.00
2023-01-23T16:20:42.900Z,31.40
2023-01-23T16:23:18.809Z,33.63
2023-01-23T16:25:46.925Z,31.42
2023-01-23T16:28:16.641Z,27.52
2023-01-23T16:30:44.307Z,33.42
2023-01-23T16:33:11.726Z,34.80
2023-01-23T16:35:39.285Z,26.58
2023-01-23T16:38:06.969Z,36.60
2023-01-23T16:40:34.727Z,41.90
2023-01-23T16:43:03.332Z,40.80
2023-01-23T16:45:31.963Z,37.45
2023-01-23T16:47:59.630Z,38.50
2023-01-23T16:50:34.022Z,40.70
2023-01-23T16:53:09.025Z,38.37
2023-01-23T16:55:42.333Z,38.83
2023-01-23T16:58:26.225Z,31.92
2023-01-23T17:01:04.041Z,35.55
2023-01-23T17:03:34.691Z,40.28
2023-01-23T17:06:02.031Z,36.55
2023-01-23T17:08:31.474Z,40.15
2023-01-23T17:11:02.029Z,43.40
2023-01-23T17:13:33.746Z,38.13
2023-01-23T17:16:07.378Z,46.05
2023-01-23T17:18:40.598Z,56.97
2023-01-23T17:21:07.952Z,44.30
2023-01-23T17:23:35.404Z,47.20
2023-01-23T17:26:02.665Z,46.33
2023-01-23T17:28:30.122Z,36.03
2023-01-23T17:31:00.717Z,38.17
2023-01-23T17:33:31.899Z,33.85
2023-01-23T17:36:00.840Z,29.63
2023-01-23T17:38:34.850Z,38.95
2023-01-23T17:41:02.227Z,32.55
2023-01-23T17:43:29.729Z,36.25
2023-01-23T17:45:57.301Z,48.92
2023-01-23T17:48:29.691Z,39.95
2023-01-23T17:50:57.494Z,34.13
2023-01-23T17:53:25.580Z,39.92
2023-01-23T17:55:53.082Z,36.63
2023-01-23T17:58:21.135Z,40.60
2023-01-23T18:00:51.403Z,35.60
2023-01-23T18:03:22.464Z,33.90
2023-01-23T18:05:49.745Z,34.55
2023-01-23T18:08:19.253Z,33.83
2023-01-23T18:10:49.126Z,31.88
2023-01-23T18:13:38.675Z,34.05
2023-01-23T18:16:20.420Z,35.42
2023-01-23T18:18:53.263Z,33.80
2023-01-23T18:21:21.643Z,37.47
2023-01-23T18:23:49.341Z,39.13
2023-01-23T18:26:35.207Z,37.58
2023-01-23T18:29:27.914Z,39.75
2023-01-23T18:32:26.864Z,37.60
2023-01-23T18:35:04.683Z,35.17
2023-01-23T18:37:49.956Z,34.08
2023-01-23T18:40:35.519Z,36.25
2023-01-23T18:45:36.552Z,31.08
2023-01-23T18:48:04.677Z,38.92
2023-01-23T18:50:34.975Z,31.50
2023-01-23T18:53:37.099Z,33.53
2023-01-23T18:56:14.578Z,34.95
2023-01-23T18:59:12.805Z,32.00
2023-01-23T19:02:00.147Z,32.88
2023-01-23T19:05:11.807Z,31.50
2023-01-23T19:07:39.469Z,27.50
2023-01-23T19:10:12.843Z,29.27
2023-01-23T19:12:47.518Z,29.50
2023-01-23T19:15:26.940Z,29.30
2023-01-23T19:17:57.210Z,26.75
2023-01-23T19:20:49.259Z,31.42
2023-01-23T19:23:21.438Z,28.05
2023-01-23T19:25:48.913Z,28.30
2023-01-23T19:28:16.510Z,25.23
2023-01-23T19:30:44.647Z,26.45
2023-01-23T19:33:19.199Z,29.02
2023-01-23T19:35:48.068Z,31.45
2023-01-23T19:38:18.029Z,24.13
2023-01-23T19:40:46.167Z,31.35
2023-01-23T19:43:17.475Z,26.83
2023-01-23T19:45:45.332Z,26.20
2023-01-23T19:48:13.799Z,30.08
2023-01-23T19:50:41.293Z,29.48
2023-01-23T19:53:10.777Z,29.00
2023-01-23T19:55:41.025Z,25.27
2023-01-23T19:58:08.531Z,25.98
2023-01-23T20:00:36.601Z,26.10
2023-01-23T20:03:05.133Z,21.58
2023-01-23T20:05:32.821Z,28.98
2023-01-23T20:08:01.266Z,28.80
2023-01-23T20:10:28.747Z,30.83
2023-01-23T20:12:56.875Z,25.98
2023-01-23T20:15:26.357Z,26.52
2023-01-23T20:17:54.306Z,26.35
2023-01-23T20:20:22.614Z,26.92
2023-01-23T20:22:49.985Z,31.40
2023-01-23T20:25:17.983Z,30.38
2023-01-23T20:27:45.711Z,24.67
2023-01-23T20:30:20.241Z,26.55
2023-01-23T20:32:47.511Z,24.27
2023-01-23T20:35:14.985Z,25.45
2023-01-23T20:37:42.207Z,27.92
2023-01-23T20:40:11.924Z,26.63
2023-01-23T20:42:40.068Z,23.90
2023-01-23T20:45:08.147Z,27.83
2023-01-23T20:47:39.090Z,23.48
2023-01-23T20:50:07.362Z,22.92
2023-01-23T20:52:53.040Z,24.15
2023-01-23T20:58:06.290Z,18.90
2023-01-23T21:03:00.961Z,25.80
2023-01-23T21:05:28.224Z,30.88
2023-01-23T21:07:58.728Z,26.20
2023-01-23T21:10:28.790Z,23.30
2023-01-23T21:12:59.171Z,22.85
2023-01-23T21:15:29.980Z,23.77
2023-01-23T21:17:58.941Z,22.30
2023-01-23T21:20:26.046Z,21.95
2023-01-23T21:22:53.222Z,27.55
2023-01-23T21:25:20.795Z,20.15
2023-01-23T21:27:51.905Z,36.90
2023-01-23T21:30:21.794Z,19.83
2023-01-23T21:32:50.365Z,24.42
2023-01-23T21:35:17.852Z,29.92
2023-01-23T21:37:45.409Z,26.65
2023-01-23T21:40:13.282Z,24.25
2023-01-23T21:42:43.638Z,22.20
2023-01-23T21:45:11.475Z,39.90
2023-01-23T21:47:39.123Z,31.90
2023-01-23T21:50:06.749Z,33.63
2023-01-23T21:52:33.941Z,27.42
2023-01-23T21:55:01.266Z,21.55
2023-01-23T21:57:28.635Z,24.23
2023-01-23T22:00:14.135Z,26.08
2023-01-23T22:02:44.483Z,28.17
2023-01-23T22:05:12.332Z,37.38
2023-01-23T22:07:39.688Z,27.52
2023-01-23T22:10:07.837Z,26.25
2023-01-23T22:12:35.169Z,24.60
2023-01-23T22:15:02.568Z,24.40
2023-01-23T22:17:29.877Z,25.23
2023-01-23T22:19:57.640Z,29.20
2023-01-23T22:22:24.924Z,18.73
2023-01-23T22:24:52.239Z,32.25
2023-01-23T22:27:19.903Z,28.85
2023-01-23T22:29:47.073Z,22.67
2023-01-23T22:32:14.371Z,28.38
2023-01-23T22:34:41.437Z,24.98
2023-01-23T22:37:08.701Z,26.55
2023-01-23T22:39:35.965Z,29.58
2023-01-23T22:42:03.095Z,27.33
2023-01-23T22:44:30.886Z,27.23
2023-01-23T22:46:58.109Z,34.45
2023-01-23T22:49:25.735Z,22.50
2023-01-23T22:51:55.691Z,29.73
2023-01-23T22:54:22.862Z,28.45
2023-01-23T22:56:50.168Z,27.63
2023-01-23T22:59:20.414Z,30.13
2023-01-23T23:01:47.742Z,31.48
2023-01-23T23:04:14.843Z,32.42
2023-01-23T23:06:42.102Z,26.30
2023-01-23T23:09:10.795Z,32.40
2023-01-23T23:11:39.614Z,25.50
2023-01-23T23:14:06.962Z,28.23
2023-01-23T23:16:34.077Z,29.90
2023-01-23T23:19:03.442Z,28.00
2023-01-23T23:21:35.852Z,28.40
2023-01-23T23:24:06.127Z,24.00
2023-01-23T23:26:33.877Z,26.38
2023-01-23T23:29:02.272Z,24.63
2023-01-23T23:31:29.874Z,30.52
2023-01-23T23:33:57.312Z,28.83
2023-01-23T23:36:25.141Z,39.05
2023-01-23T23:38:52.291Z,31.10
2023-01-23T23:41:19.894Z,30.10
2023-01-23T23:43:47.130Z,29.00
2023-01-23T23:46:15.665Z,26.45
2023-01-23T23:48:44.045Z,32.42
2023-01-23T23:51:14.231Z,26.63
2023-01-23T23:53:41.606Z,29.42
2023-01-23T23:56:14.331Z,34.78
2023-01-23T23:58:41.700Z,38.85
